createdAt,value
2023-05-08T00:02:54.752Z,89.02
2023-05-08T00:07:54.623Z,89.33
2023-05-08T00:12:54.567Z,89.33
2023-05-08T00:17:54.598Z,89.53
2023-05-08T00:22:54.414Z,89.53
2023-05-08T00:27:54.358Z,89.74
2023-05-08T00:32:54.403Z,89.78
2023-05-08T00:37:54.316Z,89.78
2023-05-08T00:42:54.132Z,89.78
2023-05-08T00:47:54.105Z,90.19
2023-05-08T00:52:54.004Z,90.30
2023-05-08T00:57:53.955Z,90.65
2023-05-08T01:02:53.967Z,90.75
2023-05-08T01:07:53.809Z,90.85
2023-05-08T01:12:53.757Z,90.75
2023-05-08T01:17:53.708Z,90.65
2023-05-08T01:22:53.603Z,90.55
2023-05-08T01:27:53.548Z,90.44
2023-05-08T01:32:53.522Z,90.59
2023-05-08T01:37:53.412Z,90.79
2023-05-08T01:42:53.341Z,91.04
2023-05-08T01:47:53.329Z,91.66
2023-05-08T01:52:53.210Z,91.97
2023-05-08T01:57:53.157Z,92.32
2023-05-08T02:02:53.227Z,92.32
2023-05-08T02:07:53.025Z,92.67
2023-05-08T02:12:52.974Z,92.67
2023-05-08T02:17:52.966Z,93.13
2023-05-08T02:22:52.802Z,93.34
2023-05-08T02:27:52.757Z,93.43
2023-05-08T02:32:52.715Z,93.89
2023-05-08T02:37:52.644Z,94.10
2023-05-08T02:42:52.541Z,94.10
2023-05-08T02:47:52.502Z,94.20
2023-05-08T02:52:52.407Z,94.35
2023-05-08T02:57:52.348Z,94.25
2023-05-08T03:02:52.365Z,94.25
2023-05-08T03:07:52.217Z,94.39
2023-05-08T03:12:52.218Z,94.50
2023-05-08T03:17:52.106Z,94.29
2023-05-08T03:22:52.133Z,94.18
2023-05-08T03:27:51.950Z,94.43
2023-05-08T03:32:51.995Z,94.91
2023-05-08T03:37:51.814Z,94.60
2023-05-08T03:42:51.734Z,93.98
2023-05-08T03:47:51.691Z,93.57
2023-05-08T03:52:51.602Z,93.46
2023-05-08T03:57:51.555Z,92.76
2023-05-08T04:02:51.577Z,91.79
2023-05-08T04:07:51.415Z,90.10
2023-05-08T04:12:51.359Z,87.64
2023-05-08T04:17:51.311Z,84.88
2023-05-08T04:22:51.223Z,83.06
2023-05-08T04:27:51.269Z,81.54
2023-05-08T04:32:51.131Z,79.14
2023-05-08T04:37:51.029Z,75.82
2023-05-08T04:42:50.956Z,74.15
2023-05-08T04:47:50.994Z,71.49
2023-05-08T04:52:50.825Z,69.49
2023-05-08T04:57:50.756Z,67.46
2023-05-08T05:02:50.682Z,65.26
2023-05-08T05:07:50.631Z,64.56
2023-05-08T05:12:50.597Z,63.35
2023-05-08T05:17:50.539Z,61.19
2023-05-08T05:22:50.406Z,64.75
2023-05-08T05:27:50.370Z,66.44
2023-05-08T05:32:50.308Z,68.98
2023-05-08T05:37:50.210Z,70.81
2023-05-08T05:42:50.135Z,70.20
2023-05-08T05:47:50.720Z,69.18
2023-05-08T05:52:49.998Z,69.62
2023-05-08T05:57:49.954Z,69.02
2023-05-08T06:02:49.989Z,64.56
2023-05-08T06:07:49.810Z,63.02
2023-05-08T06:12:49.781Z,60.66
2023-05-08T06:17:49.720Z,59.46
2023-05-08T06:22:49.604Z,58.92
2023-05-08T06:27:49.560Z,59.01
2023-05-08T06:32:49.574Z,60.70
2023-05-08T06:37:49.430Z,58.19
2023-05-08T06:42:49.335Z,57.20
2023-05-08T06:47:49.340Z,57.89
2023-05-08T06:52:49.214Z,57.50
2023-05-08T06:57:49.163Z,56.80
2023-05-08T07:02:49.092Z,58.30
2023-05-08T07:07:49.035Z,57.89
2023-05-08T07:12:48.982Z,61.18
2023-05-08T07:17:48.937Z,57.53
2023-05-08T07:22:48.831Z,56.87
2023-05-08T07:27:48.749Z,57.83
2023-05-08T07:32:48.743Z,56.62
2023-05-08T07:37:48.604Z,53.69
2023-05-08T07:42:48.537Z,53.97
2023-05-08T07:47:48.533Z,52.74
2023-05-08T07:52:50.095Z,53.34
2023-05-08T07:57:48.356Z,51.61
2023-05-08T08:02:48.428Z,53.39
2023-05-08T08:07:48.212Z,54.45
2023-05-08T08:12:48.157Z,56.62
2023-05-08T08:17:48.126Z,55.21
2023-05-08T08:22:48.005Z,55.91
2023-05-08T08:27:47.942Z,54.85
2023-05-08T08:32:47.903Z,54.40
2023-05-08T08:37:47.801Z,52.77
2023-05-08T08:42:47.737Z,54.68
2023-05-08T08:47:47.704Z,53.39
2023-05-08T08:52:47.599Z,57.00
2023-05-08T08:57:47.538Z,57.22
2023-05-08T09:02:47.550Z,53.24
2023-05-08T09:07:47.396Z,53.49
2023-05-08T09:12:47.387Z,52.74
2023-05-08T09:17:47.293Z,50.81
2023-05-08T09:22:47.201Z,52.71
2023-05-08T09:27:47.138Z,53.19
2023-05-08T09:32:47.094Z,53.47
2023-05-08T09:37:46.998Z,52.71
2023-05-08T09:42:46.957Z,50.50
2023-05-08T09:47:46.904Z,53.74
2023-05-08T09:52:46.845Z,52.06
2023-05-08T09:57:46.750Z,52.44
2023-05-08T10:02:46.697Z,50.81
2023-05-08T10:07:46.615Z,50.23
2023-05-08T10:12:46.558Z,52.01
2023-05-08T10:17:46.493Z,50.81
2023-05-08T10:22:46.404Z,48.82
2023-05-08T10:27:46.328Z,50.62
2023-05-08T10:32:46.331Z,53.57
2023-05-08T10:37:46.206Z,50.37
2023-05-08T10:42:46.141Z,49.22
2023-05-08T10:47:49.018Z,48.37
2023-05-08T10:52:46.030Z,48.77
2023-05-08T10:57:45.946Z,50.86
2023-05-08T11:02:45.926Z,48.25
2023-05-08T11:07:45.815Z,48.16
2023-05-08T11:12:45.789Z,49.77
2023-05-08T11:17:45.697Z,49.04
2023-05-08T11:22:45.607Z,50.90
2023-05-08T11:27:45.565Z,49.62
2023-05-08T11:32:45.504Z,51.17
2023-05-08T11:37:45.433Z,49.82
2023-05-08T11:42:45.373Z,50.22
2023-05-08T11:47:45.348Z,47.46
2023-05-08T11:52:45.223Z,48.34
2023-05-08T11:57:45.165Z,48.66
2023-05-08T12:02:45.140Z,48.74
2023-05-08T12:07:45.035Z,49.19
2023-05-08T12:12:45.161Z,46.90
2023-05-08T12:17:44.918Z,45.75
2023-05-08T12:22:44.822Z,49.67
2023-05-08T12:27:44.756Z,47.58
2023-05-08T12:32:44.810Z,50.20
2023-05-08T12:37:44.630Z,51.28
2023-05-08T12:42:44.558Z,49.97
2023-05-08T12:47:44.518Z,50.07
2023-05-08T12:52:44.440Z,49.45
2023-05-08T12:57:44.377Z,48.02
2023-05-08T13:02:49.550Z,45.87
2023-05-08T13:07:44.251Z,45.55
2023-05-08T13:12:44.194Z,46.35
2023-05-08T13:17:44.165Z,46.73
2023-05-08T13:22:44.032Z,47.61
2023-05-08T13:27:43.988Z,41.08
2023-05-08T13:32:43.932Z,41.08
2023-05-08T13:37:43.856Z,36.78
2023-05-08T13:42:43.781Z,36.18
2023-05-08T13:47:43.814Z,35.90
2023-05-08T13:52:43.659Z,38.11
2023-05-08T13:57:43.591Z,38.21
2023-05-08T14:02:43.625Z,37.60
2023-05-08T14:07:43.463Z,36.70
2023-05-08T14:12:43.443Z,36.68
2023-05-08T14:17:43.399Z,37.08
2023-05-08T14:22:43.255Z,37.08
2023-05-08T14:27:43.200Z,37.48
2023-05-08T14:32:43.205Z,37.79
2023-05-08T14:37:43.061Z,37.68
2023-05-08T14:42:42.982Z,37.79
2023-05-08T14:47:42.955Z,39.30
2023-05-08T14:52:42.879Z,38.67
2023-05-08T14:57:42.808Z,38.47
2023-05-08T15:02:42.784Z,38.67
2023-05-08T15:07:42.668Z,38.17
2023-05-08T15:12:42.630Z,37.37
2023-05-08T15:17:42.564Z,37.67
2023-05-08T15:22:42.450Z,37.25
2023-05-08T15:27:42.522Z,37.25
2023-05-08T15:32:42.398Z,36.76
2023-05-08T15:37:42.267Z,37.27
2023-05-08T15:42:42.195Z,36.65
2023-05-08T15:47:42.145Z,37.07
2023-05-08T15:52:42.062Z,34.75
2023-05-08T15:57:42.009Z,35.56
2023-05-08T16:02:42.036Z,35.44
2023-05-08T16:07:41.876Z,35.94
2023-05-08T16:12:41.833Z,35.27
2023-05-08T16:17:41.764Z,35.76
2023-05-08T16:22:41.680Z,35.76
2023-05-08T16:27:41.640Z,34.94
2023-05-08T16:32:41.574Z,33.95
2023-05-08T16:37:41.488Z,35.16
2023-05-08T16:42:41.445Z,34.05
2023-05-08T16:47:41.415Z,35.26
2023-05-08T16:52:41.289Z,34.96
2023-05-08T16:57:41.235Z,34.15
2023-05-08T17:02:41.283Z,33.86
2023-05-08T17:07:41.103Z,34.17
2023-05-08T17:12:41.082Z,34.19
2023-05-08T17:17:41.004Z,34.38
2023-05-08T17:22:40.949Z,33.80
2023-05-08T17:27:40.840Z,34.10
2023-05-08T17:32:40.809Z,34.62
2023-05-08T17:37:40.720Z,34.22
2023-05-08T17:42:40.640Z,34.82
2023-05-08T17:47:40.629Z,35.65
2023-05-08T17:52:40.504Z,35.94
2023-05-08T17:57:40.452Z,36.37
2023-05-08T18:02:40.485Z,36.46
2023-05-08T18:07:40.311Z,37.29
2023-05-08T18:12:40.335Z,37.89
2023-05-08T18:17:40.228Z,38.11
2023-05-08T18:22:40.117Z,38.51
2023-05-08T18:27:40.050Z,38.94
2023-05-08T18:32:40.032Z,42.08
2023-05-08T18:37:39.909Z,45.94
2023-05-08T18:42:39.877Z,50.72
2023-05-08T18:47:39.789Z,54.38
2023-05-08T18:52:40.707Z,55.52
2023-05-08T18:57:39.638Z,56.93
2023-05-08T19:02:39.593Z,57.77
2023-05-08T19:07:39.746Z,58.38
2023-05-08T19:12:39.471Z,59.11
2023-05-08T19:17:39.383Z,59.55
2023-05-08T19:22:39.307Z,60.05
2023-05-08T19:27:39.242Z,60.35
2023-05-08T19:32:39.171Z,60.79
2023-05-08T19:37:39.108Z,61.09
2023-05-08T19:42:39.046Z,61.63
2023-05-08T19:47:39.009Z,61.52
2023-05-08T19:52:38.910Z,62.03
2023-05-08T19:57:38.845Z,62.26
2023-05-08T20:02:38.888Z,62.67
2023-05-08T20:07:38.712Z,63.21
2023-05-08T20:12:38.651Z,63.64
2023-05-08T20:17:38.680Z,64.25
2023-05-08T20:22:38.487Z,64.89
2023-05-08T20:27:38.451Z,65.23
2023-05-08T20:32:38.376Z,65.74
2023-05-08T20:37:38.295Z,66.99
2023-05-08T20:42:38.226Z,68.27
2023-05-08T20:47:38.204Z,68.48
2023-05-08T20:52:39.403Z,68.48
2023-05-08T20:57:38.061Z,68.68
2023-05-08T21:02:38.094Z,69.12
2023-05-08T21:07:37.906Z,69.86
2023-05-08T21:12:37.837Z,71.02
2023-05-08T21:17:37.792Z,71.97
2023-05-08T21:22:37.713Z,72.38
2023-05-08T21:27:37.636Z,72.71
2023-05-08T21:32:37.602Z,73.02
2023-05-08T21:37:37.510Z,73.36
2023-05-08T21:42:37.436Z,73.66
2023-05-08T21:47:37.417Z,74.18
2023-05-08T21:52:37.315Z,74.31
2023-05-08T21:57:37.307Z,74.42
2023-05-08T22:02:37.226Z,74.62
2023-05-08T22:07:37.104Z,75.27
2023-05-08T22:12:37.029Z,76.02
2023-05-08T22:17:37.004Z,76.22
2023-05-08T22:22:36.890Z,76.67
2023-05-08T22:27:36.828Z,77.18
2023-05-08T22:32:36.793Z,77.31
2023-05-08T22:37:36.704Z,78.03
2023-05-08T22:42:36.668Z,78.89
2023-05-08T22:47:36.711Z,79.19
2023-05-08T22:52:36.596Z,78.99
2023-05-08T22:57:36.637Z,78.55
2023-05-08T23:02:36.630Z,78.89
2023-05-08T23:07:36.310Z,78.72
2023-05-08T23:12:36.217Z,78.21
2023-05-08T23:17:36.229Z,77.80
2023-05-08T23:22:36.239Z,77.28
2023-05-08T23:27:36.040Z,76.57
2023-05-08T23:32:35.977Z,75.51
2023-05-08T23:37:35.893Z,75.14
2023-05-08T23:42:35.821Z,75.34
2023-05-08T23:47:35.796Z,75.48
2023-05-08T23:52:35.685Z,75.48
2023-05-08T23:57:35.623Z,75.48
